Time;durP1;ratioP1;P1;durP2;ratioP2;P2;SDS_P1;SDS_P2;PMS_P1;PMS_P2;Temp;Humidity;BMP_temperature;BMP_pressure;BME280_temperature;BME280_humidity;BME280_pressure;Samples;Min_cycle;Max_cycle;Signal;HPM_P1;HPM_P2
2023/08/23 00:01:06;;;;;;;;;3.60;3.00;;;;;;;;5037262;28;8793;-90
2023/08/23 00:03:33;;;;;;;;;5.60;2.40;;;;;;;;5038316;28;8856;-89
2023/08/23 00:06:01;;;;;;;;;3.00;3.00;;;;;;;;5037463;28;8888;-90
2023/08/23 00:08:28;;;;;;;;;3.20;3.20;;;;;;;;5033367;28;8876;-87
2023/08/23 00:10:56;;;;;;;;;3.20;2.80;;;;;;;;5031677;28;8990;-86
2023/08/23 00:13:23;;;;;;;;;2.40;2.40;;;;;;;;5031370;28;9667;-86
2023/08/23 00:15:52;;;;;;;;;1.60;1.60;;;;;;;;5031385;28;8860;-85
2023/08/23 00:18:19;;;;;;;;;2.80;2.80;;;;;;;;5030870;28;8878;-88
2023/08/23 00:20:47;;;;;;;;;5.60;3.80;;;;;;;;5031539;28;8886;-88
2023/08/23 00:23:14;;;;;;;;;3.40;2.00;;;;;;;;5030185;28;8884;-88
2023/08/23 00:25:41;;;;;;;;;2.40;2.40;;;;;;;;5029711;28;8872;-88
2023/08/23 00:28:08;;;;;;;;;3.00;3.00;;;;;;;;5030874;28;8865;-89
2023/08/23 00:30:36;;;;;;;;;5.20;4.00;;;;;;;;5029645;28;8784;-87
2023/08/23 00:33:07;;;;;;;;;4.20;4.20;;;;;;;;5032339;28;8848;-88
2023/08/23 00:35:35;;;;;;;;;1.80;1.80;;;;;;;;5031365;28;9690;-89
2023/08/23 00:38:02;;;;;;;;;3.00;3.00;;;;;;;;5033585;28;8840;-89
2023/08/23 00:40:35;;;;;;;;;4.00;4.00;;;;;;;;5031741;28;8852;-88
2023/08/23 00:43:06;;;;;;;;;3.60;3.60;;;;;;;;5030775;28;9595;-88
2023/08/23 00:45:35;;;;;;;;;3.60;3.60;;;;;;;;5030032;28;8888;-87
2023/08/23 00:48:03;;;;;;;;;3.80;2.40;;;;;;;;5029899;28;8964;-88
2023/08/23 00:50:32;;;;;;;;;3.60;3.60;;;;;;;;5030576;28;8858;-87
2023/08/23 00:52:59;;;;;;;;;4.00;4.00;;;;;;;;5030753;28;8949;-88
2023/08/23 00:55:27;;;;;;;;;2.60;2.60;;;;;;;;5030462;28;8859;-88
2023/08/23 00:57:54;;;;;;;;;3.80;3.80;;;;;;;;5032497;28;8883;-89
2023/08/23 01:00:22;;;;;;;;;3.00;2.80;;;;;;;;5031020;28;8988;-89
2023/08/23 01:02:49;;;;;;;;;3.80;3.80;;;;;;;;5030325;28;8852;-87
2023/08/23 01:05:16;;;;;;;;;2.00;2.00;;;;;;;;5030555;28;8968;-88
2023/08/23 01:07:53;;;;;;;;;4.80;3.40;;;;;;;;5030565;28;8864;-88
2023/08/23 01:10:29;;;;;;;;;2.80;2.80;;;;;;;;5029228;28;8880;-87
2023/08/23 01:13:03;;;;;;;;;3.40;3.40;;;;;;;;5030391;28;8868;-88
2023/08/23 01:15:31;;;;;;;;;4.20;4.20;;;;;;;;5030011;28;8885;-86
2023/08/23 01:18:00;;;;;;;;;1.40;1.40;;;;;;;;5030240;28;8887;-87
2023/08/23 01:20:27;;;;;;;;;3.80;3.80;;;;;;;;5030047;28;8902;-87
2023/08/23 01:23:07;;;;;;;;;4.00;4.00;;;;;;;;5030417;28;8883;-86
2023/08/23 01:25:37;;;;;;;;;3.20;1.20;;;;;;;;5018678;28;8879;-87
2023/08/23 01:28:04;;;;;;;;;2.40;2.40;;;;;;;;5029684;28;8892;-86
2023/08/23 01:30:32;;;;;;;;;2.20;2.20;;;;;;;;5032686;28;8846;-86
2023/08/23 01:33:03;;;;;;;;;2.60;2.60;;;;;;;;5034332;28;8886;-86
2023/08/23 01:35:38;;;;;;;;;2.20;2.20;;;;;;;;5019139;28;8846;-86
2023/08/23 01:38:08;;;;;;;;;1.40;1.40;;;;;;;;5033529;28;9011;-87
2023/08/23 01:40:37;;;;;;;;;2.80;2.80;;;;;;;;5023995;28;8996;-87
2023/08/23 01:43:04;;;;;;;;;2.00;2.00;;;;;;;;5035642;28;8861;-86
2023/08/23 01:45:31;;;;;;;;;1.80;1.80;;;;;;;;5031881;28;8874;-87
2023/08/23 01:47:59;;;;;;;;;2.00;2.00;;;;;;;;5029265;28;8963;-87
2023/08/23 01:50:28;;;;;;;;;1.60;1.60;;;;;;;;5030461;28;9615;-87
2023/08/23 01:52:56;;;;;;;;;2.00;2.00;;;;;;;;5016547;28;9657;-86
2023/08/23 01:55:24;;;;;;;;;1.00;1.00;;;;;;;;5028245;28;8857;-87
2023/08/23 01:57:52;;;;;;;;;1.00;1.00;;;;;;;;5029203;28;8871;-87
2023/08/23 02:00:19;;;;;;;;;2.00;2.00;;;;;;;;5029829;28;8967;-86
2023/08/23 02:02:46;;;;;;;;;1.20;1.20;;;;;;;;5028928;28;8860;-87
2023/08/23 02:05:14;;;;;;;;;2.20;2.20;;;;;;;;5029428;28;8872;-87
2023/08/23 02:07:41;;;;;;;;;0.80;0.00;;;;;;;;5029116;28;8856;-87
2023/08/23 02:10:09;;;;;;;;;1.80;1.80;;;;;;;;5030635;28;9583;-87
2023/08/23 02:12:40;;;;;;;;;0.80;0.80;;;;;;;;5031485;28;8890;-87
2023/08/23 02:15:08;;;;;;;;;1.60;1.60;;;;;;;;5031199;28;8976;-87
2023/08/23 02:17:35;;;;;;;;;1.20;1.20;;;;;;;;5030707;28;8868;-87
2023/08/23 02:20:03;;;;;;;;;1.00;1.00;;;;;;;;5018199;28;8864;-87
2023/08/23 02:22:30;;;;;;;;;2.00;2.00;;;;;;;;5029704;28;8979;-87
2023/08/23 02:24:57;;;;;;;;;2.80;2.00;;;;;;;;5028852;28;8996;-87
2023/08/23 02:27:24;;;;;;;;;0.60;0.60;;;;;;;;5029441;28;8868;-86
2023/08/23 02:29:53;;;;;;;;;1.80;1.80;;;;;;;;5029263;28;8864;-86
2023/08/23 02:32:20;;;;;;;;;1.80;1.80;;;;;;;;5028371;28;8817;-86
2023/08/23 02:34:48;;;;;;;;;2.00;2.00;;;;;;;;5029587;28;8866;-86
2023/08/23 02:37:15;;;;;;;;;1.20;1.20;;;;;;;;5026256;28;8836;-87
2023/08/23 02:39:43;;;;;;;;;4.40;3.00;;;;;;;;5028494;28;8848;-86
2023/08/23 02:42:10;;;;;;;;;1.20;1.20;;;;;;;;5028660;28;8859;-86
2023/08/23 02:44:38;;;;;;;;;2.00;2.00;;;;;;;;5029510;28;8865;-87
2023/08/23 02:47:08;;;;;;;;;1.40;1.40;;;;;;;;5028826;28;8891;-86
2023/08/23 02:49:36;;;;;;;;;1.40;1.40;;;;;;;;5029057;28;8876;-86
2023/08/23 02:52:06;;;;;;;;;3.40;2.00;;;;;;;;5028363;28;8876;-87
2023/08/23 02:54:33;;;;;;;;;0.20;0.20;;;;;;;;5032965;28;8858;-86
2023/08/23 02:57:01;;;;;;;;;2.50;2.50;;;;;;;;5032383;28;9018;-86
2023/08/23 02:59:29;;;;;;;;;3.60;1.80;;;;;;;;5032806;28;8929;-86
2023/08/23 03:01:56;;;;;;;;;2.80;2.80;;;;;;;;5030708;28;8836;-85
2023/08/23 03:04:25;;;;;;;;;3.25;1.75;;;;;;;;5033230;28;8854;-86
2023/08/23 03:06:52;;;;;;;;;2.50;2.50;;;;;;;;5034358;28;8856;-87
2023/08/23 03:09:19;;;;;;;;;1.60;1.00;;;;;;;;5036551;28;8987;-86
2023/08/23 03:11:46;;;;;;;;;2.50;2.50;;;;;;;;5038700;28;8930;-86
2023/08/23 03:14:14;;;;;;;;;1.25;1.25;;;;;;;;5037997;28;8864;-86
2023/08/23 03:16:41;;;;;;;;;1.75;1.75;;;;;;;;5038363;28;8856;-86
2023/08/23 03:19:08;;;;;;;;;2.00;2.00;;;;;;;;5039069;28;8890;-85
2023/08/23 03:21:37;;;;;;;;;1.00;1.00;;;;;;;;5035849;28;8884;-87
2023/08/23 03:24:05;;;;;;;;;2.00;1.75;;;;;;;;5032454;28;8996;-86
2023/08/23 03:26:32;;;;;;;;;2.00;1.75;;;;;;;;5031498;28;8868;-86
2023/08/23 03:28:59;;;;;;;;;0.75;0.75;;;;;;;;5032094;28;8878;-85
2023/08/23 03:31:27;;;;;;;;;2.25;2.25;;;;;;;;5029863;28;8793;-87
2023/08/23 03:33:55;;;;;;;;;1.00;1.00;;;;;;;;5032420;28;8921;-86
2023/08/23 03:36:24;;;;;;;;;2.00;2.00;;;;;;;;5028481;28;9623;-86
2023/08/23 03:38:53;;;;;;;;;1.75;1.75;;;;;;;;5026768;28;8864;-87
2023/08/23 03:41:20;;;;;;;;;1.75;1.75;;;;;;;;5032264;28;8882;-87
2023/08/23 03:43:48;;;;;;;;;3.50;3.50;;;;;;;;5031762;28;9681;-86
2023/08/23 03:46:15;;;;;;;;;2.75;1.50;;;;;;;;5032543;28;9591;-86
2023/08/23 03:48:42;;;;;;;;;1.50;1.50;;;;;;;;5032188;28;8890;-87
2023/08/23 03:51:09;;;;;;;;;2.00;2.00;;;;;;;;5033722;28;8875;-86
2023/08/23 03:53:37;;;;;;;;;1.25;1.25;;;;;;;;5032687;28;8859;-87
2023/08/23 03:56:06;;;;;;;;;3.50;3.00;;;;;;;;5031202;28;9603;-87
2023/08/23 03:58:33;;;;;;;;;0.75;0.75;;;;;;;;5031486;28;8868;-87
2023/08/23 04:01:01;;;;;;;;;1.00;1.00;;;;;;;;5031480;28;9266;-86
2023/08/23 04:03:28;;;;;;;;;1.75;1.75;;;;;;;;5030408;28;8898;-85
2023/08/23 04:05:55;;;;;;;;;3.75;1.75;;;;;;;;5035144;28;8888;-86
2023/08/23 04:08:23;;;;;;;;;3.00;1.00;;;;;;;;5033846;28;8872;-83
2023/08/23 04:10:50;;;;;;;;;2.00;2.00;;;;;;;;5029970;28;8937;-84
2023/08/23 04:13:19;;;;;;;;;1.25;1.25;;;;;;;;5030315;28;8875;-84
2023/08/23 04:15:46;;;;;;;;;2.25;2.25;;;;;;;;5030606;28;8884;-85
2023/08/23 04:18:16;;;;;;;;;3.75;2.75;;;;;;;;5029661;28;8852;-83
2023/08/23 04:20:43;;;;;;;;;2.50;2.25;;;;;;;;5029667;28;8990;-82
2023/08/23 04:23:11;;;;;;;;;2.00;2.00;;;;;;;;5029605;28;8891;-81
2023/08/23 04:25:38;;;;;;;;;1.25;1.25;;;;;;;;5030358;28;8869;-85
2023/08/23 04:28:06;;;;;;;;;1.50;1.50;;;;;;;;5029799;28;8970;-82
2023/08/23 04:30:46;;;;;;;;;2.00;2.00;;;;;;;;5029191;28;8785;-83
2023/08/23 04:33:13;;;;;;;;;2.00;2.00;;;;;;;;5018327;28;8856;-82
2023/08/23 04:35:42;;;;;;;;;2.00;2.00;;;;;;;;5029096;28;8856;-82
2023/08/23 04:38:13;;;;;;;;;1.25;1.25;;;;;;;;5021448;28;8834;-82
2023/08/23 04:40:40;;;;;;;;;3.25;2.25;;;;;;;;5029859;28;8848;-83
2023/08/23 04:43:08;;;;;;;;;2.00;2.00;;;;;;;;5032100;28;9003;-83
2023/08/23 04:45:40;;;;;;;;;2.75;2.00;;;;;;;;5034088;28;9560;-84
2023/08/23 04:48:11;;;;;;;;;1.25;1.25;;;;;;;;5036129;28;8856;-82
2023/08/23 04:50:39;;;;;;;;;2.00;2.00;;;;;;;;5035848;28;8946;-83
2023/08/23 04:53:06;;;;;;;;;3.00;3.00;;;;;;;;5036009;28;8876;-84
2023/08/23 04:55:34;;;;;;;;;1.25;1.00;;;;;;;;5035462;28;8870;-82
2023/08/23 04:58:01;;;;;;;;;3.50;2.25;;;;;;;;5031090;28;8950;-85
2023/08/23 05:00:28;;;;;;;;;3.00;1.50;;;;;;;;5028352;28;8745;-84
2023/08/23 05:02:59;;;;;;;;;2.00;2.00;;;;;;;;5030647;28;8880;-88
2023/08/23 05:05:26;;;;;;;;;4.50;3.00;;;;;;;;5030385;28;8890;-83
2023/08/23 05:07:55;;;;;;;;;0.00;0.00;;;;;;;;5029444;28;8970;-84
2023/08/23 05:10:23;;;;;;;;;2.25;2.25;;;;;;;;5027610;28;8844;-84
2023/08/23 05:12:51;;;;;;;;;1.25;1.25;;;;;;;;5028907;28;8864;-85
2023/08/23 05:15:19;;;;;;;;;3.00;3.00;;;;;;;;5028010;28;8856;-82
2023/08/23 05:17:46;;;;;;;;;17.00;17.00;;;;;;;;5029637;28;8852;-84
2023/08/23 05:20:15;;;;;;;;;12.75;12.75;;;;;;;;5029589;28;8991;-85
2023/08/23 05:22:42;;;;;;;;;4.75;4.75;;;;;;;;5031160;28;8860;-84
2023/08/23 05:25:10;;;;;;;;;3.00;3.00;;;;;;;;5030724;28;8841;-85
2023/08/23 05:27:37;;;;;;;;;2.25;2.25;;;;;;;;5029443;28;9218;-85
2023/08/23 05:30:05;;;;;;;;;3.50;2.75;;;;;;;;5019536;28;8852;-84
2023/08/23 05:32:35;;;;;;;;;2.00;2.00;;;;;;;;5028632;28;8852;-84
2023/08/23 05:35:10;;;;;;;;;2.00;2.00;;;;;;;;5028674;28;8890;-85
2023/08/23 05:37:41;;;;;;;;;2.50;2.50;;;;;;;;5028895;28;9623;-85
2023/08/23 05:40:09;;;;;;;;;1.00;1.00;;;;;;;;5028988;28;8848;-88
2023/08/23 05:42:36;;;;;;;;;3.50;2.25;;;;;;;;5028909;28;8836;-79
2023/08/23 05:45:04;;;;;;;;;3.25;2.75;;;;;;;;5028024;28;8885;-80
2023/08/23 05:47:31;;;;;;;;;2.00;2.00;;;;;;;;5027357;28;8876;-80
2023/08/23 05:49:59;;;;;;;;;2.75;2.75;;;;;;;;5027568;28;8889;-77
2023/08/23 05:52:26;;;;;;;;;2.75;2.75;;;;;;;;5027184;28;8856;-79
2023/08/23 05:54:54;;;;;;;;;3.75;3.75;;;;;;;;5027068;28;8864;-79
2023/08/23 05:57:21;;;;;;;;;1.75;1.75;;;;;;;;5027386;28;8858;-79
2023/08/23 05:59:48;;;;;;;;;4.25;2.75;;;;;;;;5027380;28;8854;-78
2023/08/23 06:02:16;;;;;;;;;4.25;3.00;;;;;;;;5026751;28;8823;-79
2023/08/23 06:04:43;;;;;;;;;2.00;2.00;;;;;;;;5027042;28;8972;-79
2023/08/23 06:07:14;;;;;;;;;2.00;2.00;;;;;;;;5027405;28;8875;-77
2023/08/23 06:09:44;;;;;;;;;1.25;1.25;;;;;;;;5027677;28;8854;-76
2023/08/23 06:12:13;;;;;;;;;3.00;1.80;;;;;;;;5015770;28;8860;-79
2023/08/23 06:14:43;;;;;;;;;1.20;1.20;;;;;;;;5027756;28;8856;-78
2023/08/23 06:17:13;;;;;;;;;2.00;2.00;;;;;;;;5028480;28;8866;-78
2023/08/23 06:19:43;;;;;;;;;1.60;1.40;;;;;;;;5031344;28;8842;-79
2023/08/23 06:22:10;;;;;;;;;2.00;1.80;;;;;;;;5032030;28;8848;-77
2023/08/23 06:24:37;;;;;;;;;1.20;1.20;;;;;;;;5032803;28;9004;-80
2023/08/23 06:27:05;;;;;;;;;2.40;2.40;;;;;;;;5033309;28;9563;-79
2023/08/23 06:29:33;;;;;;;;;3.00;3.00;;;;;;;;5036975;28;8997;-79
2023/08/23 06:32:02;;;;;;;;;1.00;1.00;;;;;;;;5034588;28;8812;-77
2023/08/23 06:34:30;;;;;;;;;1.80;1.80;;;;;;;;5030931;28;8890;-76
2023/08/23 06:36:57;;;;;;;;;2.20;1.20;;;;;;;;5022951;28;8836;-77
2023/08/23 06:39:24;;;;;;;;;1.80;1.80;;;;;;;;5029333;28;8848;-77
2023/08/23 06:41:51;;;;;;;;;1.20;1.20;;;;;;;;5031158;28;8864;-78
2023/08/23 06:44:18;;;;;;;;;0.00;0.00;;;;;;;;5030648;28;8840;-77
2023/08/23 06:46:47;;;;;;;;;2.20;1.80;;;;;;;;5021517;28;8859;-77
2023/08/23 06:49:14;;;;;;;;;0.80;0.80;;;;;;;;5029961;28;9014;-76
2023/08/23 06:51:41;;;;;;;;;1.00;1.00;;;;;;;;5031138;28;8987;-78
2023/08/23 06:54:08;;;;;;;;;0.80;0.80;;;;;;;;5031322;28;8881;-78
2023/08/23 06:56:37;;;;;;;;;0.60;0.60;;;;;;;;5031536;28;8886;-79
2023/08/23 06:59:05;;;;;;;;;0.80;0.80;;;;;;;;5029156;28;8838;-78
2023/08/23 07:01:35;;;;;;;;;1.00;1.00;;;;;;;;5031482;28;8824;-77
2023/08/23 07:04:04;;;;;;;;;0.80;0.80;;;;;;;;5031973;28;8868;-79
2023/08/23 07:06:32;;;;;;;;;0.20;0.20;;;;;;;;5031132;28;8868;-80
2023/08/23 07:08:59;;;;;;;;;1.60;1.60;;;;;;;;5030202;28;8868;-80
2023/08/23 07:11:26;;;;;;;;;0.00;0.00;;;;;;;;5030860;28;8904;-77
2023/08/23 07:13:53;;;;;;;;;0.80;0.80;;;;;;;;5030283;28;9003;-78
2023/08/23 07:16:21;;;;;;;;;1.80;1.80;;;;;;;;5030016;28;8884;-75
2023/08/23 07:18:48;;;;;;;;;2.20;0.20;;;;;;;;5030108;28;9696;-78
2023/08/23 07:21:16;;;;;;;;;1.60;1.60;;;;;;;;5030513;28;8906;-78
2023/08/23 07:23:44;;;;;;;;;1.20;0.20;;;;;;;;5020376;28;8888;-77
2023/08/23 07:26:11;;;;;;;;;0.20;0.20;;;;;;;;5030738;28;8840;-78
2023/08/23 07:28:38;;;;;;;;;3.20;1.60;;;;;;;;5030687;28;8868;-78
2023/08/23 07:31:05;;;;;;;;;1.60;1.60;;;;;;;;5029185;28;8803;-81
2023/08/23 07:33:33;;;;;;;;;3.80;2.20;;;;;;;;5030708;28;8987;-78
2023/08/23 07:36:01;;;;;;;;;2.00;1.80;;;;;;;;5027380;28;8920;-79
2023/08/23 07:38:32;;;;;;;;;3.80;1.20;;;;;;;;5022262;28;8852;-78
2023/08/23 07:41:00;;;;;;;;;0.80;0.80;;;;;;;;5029567;28;8856;-78
2023/08/23 07:43:27;;;;;;;;;1.00;1.00;;;;;;;;5030271;28;8856;-78
2023/08/23 07:45:56;;;;;;;;;0.80;0.00;;;;;;;;5029945;28;8860;-78
2023/08/23 07:48:24;;;;;;;;;3.00;1.40;;;;;;;;5030416;28;8870;-78
2023/08/23 07:50:51;;;;;;;;;1.60;1.60;;;;;;;;5029808;28;8888;-78
2023/08/23 07:53:18;;;;;;;;;1.00;1.00;;;;;;;;5031465;28;8840;-77
2023/08/23 07:55:47;;;;;;;;;1.20;1.20;;;;;;;;5032192;28;8874;-78
2023/08/23 07:58:15;;;;;;;;;0.20;0.20;;;;;;;;5034230;28;8856;-76
2023/08/23 08:00:42;;;;;;;;;2.00;2.00;;;;;;;;5033585;28;8927;-78
2023/08/23 08:03:10;;;;;;;;;2.00;2.00;;;;;;;;5034906;28;8874;-77
2023/08/23 08:05:38;;;;;;;;;1.80;1.80;;;;;;;;5035480;28;9696;-78
2023/08/23 08:08:06;;;;;;;;;1.60;1.40;;;;;;;;5031543;28;8864;-79
2023/08/23 08:10:33;;;;;;;;;1.60;1.40;;;;;;;;5030297;28;8860;-78
2023/08/23 08:13:02;;;;;;;;;1.20;0.80;;;;;;;;5029100;28;9450;-79
2023/08/23 08:15:31;;;;;;;;;0.60;0.60;;;;;;;;5029255;28;8852;-78
2023/08/23 08:17:58;;;;;;;;;0.80;0.80;;;;;;;;5029472;28;8868;-78
2023/08/23 08:20:25;;;;;;;;;0.00;0.00;;;;;;;;5029799;28;8848;-78
2023/08/23 08:22:53;;;;;;;;;1.80;1.80;;;;;;;;5029632;28;8861;-78
2023/08/23 08:25:20;;;;;;;;;1.20;1.20;;;;;;;;5029320;28;8852;-79
2023/08/23 08:27:48;;;;;;;;;0.60;0.60;;;;;;;;5029164;28;9775;-78
2023/08/23 08:30:17;;;;;;;;;1.60;1.00;;;;;;;;5028707;28;8872;-77
2023/08/23 08:32:45;;;;;;;;;0.20;0.20;;;;;;;;5028979;28;9725;-78
2023/08/23 08:35:12;;;;;;;;;2.80;1.20;;;;;;;;5029561;28;8868;-79
2023/08/23 08:37:42;;;;;;;;;0.80;0.80;;;;;;;;5030197;28;8959;-78
2023/08/23 08:40:12;;;;;;;;;0.20;0.20;;;;;;;;5030389;28;8883;-78
2023/08/23 08:42:40;;;;;;;;;0.00;0.00;;;;;;;;5028808;28;9716;-78
2023/08/23 08:45:08;;;;;;;;;0.00;0.00;;;;;;;;5029160;28;8864;-79
2023/08/23 08:47:37;;;;;;;;;1.20;1.20;;;;;;;;5029021;28;8866;-78
2023/08/23 08:50:06;;;;;;;;;2.80;2.00;;;;;;;;5028395;28;8848;-79
2023/08/23 08:52:33;;;;;;;;;1.00;1.00;;;;;;;;5027223;28;8873;-78
2023/08/23 08:55:04;;;;;;;;;0.60;0.60;;;;;;;;5027607;28;9693;-78
2023/08/23 08:57:32;;;;;;;;;3.00;1.80;;;;;;;;5017151;28;8892;-79
2023/08/23 09:00:00;;;;;;;;;1.00;1.00;;;;;;;;5028315;28;8842;-79
2023/08/23 09:02:28;;;;;;;;;1.00;1.00;;;;;;;;5028573;28;8917;-79
2023/08/23 09:04:57;;;;;;;;;2.00;1.00;;;;;;;;5028361;28;8868;-77
2023/08/23 09:07:24;;;;;;;;;1.00;1.00;;;;;;;;5028942;28;8990;-79
2023/08/23 09:09:52;;;;;;;;;1.00;1.00;;;;;;;;5028100;28;8978;-80
2023/08/23 09:12:20;;;;;;;;;0.40;0.00;;;;;;;;5029112;28;8998;-79
2023/08/23 09:14:50;;;;;;;;;0.00;0.00;;;;;;;;5028277;28;8862;-78
2023/08/23 09:17:21;;;;;;;;;1.40;1.40;;;;;;;;5028871;28;9596;-79
2023/08/23 09:19:51;;;;;;;;;1.40;0.80;;;;;;;;5027831;28;9689;-79
2023/08/23 09:22:22;;;;;;;;;0.80;0.80;;;;;;;;5029122;28;8863;-78
2023/08/23 09:24:50;;;;;;;;;1.20;1.20;;;;;;;;5028355;28;8896;-78
2023/08/23 09:27:20;;;;;;;;;0.80;0.00;;;;;;;;5029201;28;8899;-79
2023/08/23 09:29:47;;;;;;;;;0.00;0.00;;;;;;;;5029608;28;8946;-79
2023/08/23 09:32:15;;;;;;;;;0.20;0.20;;;;;;;;5031718;28;8930;-80
2023/08/23 09:34:42;;;;;;;;;0.00;0.00;;;;;;;;5033323;28;8922;-80
2023/08/23 09:37:09;;;;;;;;;2.00;0.00;;;;;;;;5033235;28;8971;-79
2023/08/23 09:39:38;;;;;;;;;2.00;2.00;;;;;;;;5034469;28;8872;-78
2023/08/23 09:42:08;;;;;;;;;1.80;1.80;;;;;;;;5033227;28;8899;-78
2023/08/23 09:44:38;;;;;;;;;0.60;0.60;;;;;;;;5016498;28;8892;-78
2023/08/23 09:47:06;;;;;;;;;2.60;1.40;;;;;;;;5029172;28;8857;-78
2023/08/23 09:49:34;;;;;;;;;0.20;0.20;;;;;;;;5029022;28;8884;-79
2023/08/23 09:52:02;;;;;;;;;3.00;2.00;;;;;;;;5028670;28;9006;-78
2023/08/23 09:54:36;;;;;;;;;1.00;1.00;;;;;;;;5027534;28;9006;-77
2023/08/23 09:57:05;;;;;;;;;1.40;1.40;;;;;;;;5028088;28;8876;-79
2023/08/23 09:59:35;;;;;;;;;1.80;0.40;;;;;;;;5028144;28;8870;-77
2023/08/23 10:02:03;;;;;;;;;0.60;0.60;;;;;;;;5025793;28;8832;-77
2023/08/23 10:04:31;;;;;;;;;0.00;0.00;;;;;;;;5027808;28;8844;-78
2023/08/23 10:06:59;;;;;;;;;1.00;1.00;;;;;;;;5028991;28;8868;-78
2023/08/23 10:09:26;;;;;;;;;1.00;1.00;;;;;;;;5029517;28;8870;-79
2023/08/23 10:11:55;;;;;;;;;1.00;1.00;;;;;;;;5029258;28;8895;-78
2023/08/23 10:14:26;;;;;;;;;0.00;0.00;;;;;;;;5028980;28;8981;-78
2023/08/23 10:16:53;;;;;;;;;1.00;1.00;;;;;;;;5027156;28;9893;-78
2023/08/23 10:19:21;;;;;;;;;2.00;1.00;;;;;;;;5020350;28;8991;-77
2023/08/23 10:21:48;;;;;;;;;0.80;0.80;;;;;;;;5021316;28;8989;-81
2023/08/23 10:24:16;;;;;;;;;0.60;0.60;;;;;;;;5028017;28;8868;-78
2023/08/23 10:26:49;;;;;;;;;2.00;1.80;;;;;;;;5028873;28;8888;-80
2023/08/23 10:29:22;;;;;;;;;2.40;1.60;;;;;;;;5028169;28;8868;-82
2023/08/23 10:31:54;;;;;;;;;1.00;1.00;;;;;;;;5026612;28;8821;-81
2023/08/23 10:34:25;;;;;;;;;1.80;1.80;;;;;;;;5027148;28;8888;-79
2023/08/23 10:36:53;;;;;;;;;1.80;1.00;;;;;;;;5023048;28;8856;-79
2023/08/23 10:39:23;;;;;;;;;0.60;0.60;;;;;;;;5027183;28;8864;-79
2023/08/23 10:41:52;;;;;;;;;4.40;4.20;;;;;;;;5026987;28;8856;-77
2023/08/23 10:44:20;;;;;;;;;35.80;32.00;;;;;;;;5026757;28;8950;-78
2023/08/23 10:46:50;;;;;;;;;3.80;3.80;;;;;;;;5027361;28;9478;-84
2023/08/23 10:49:21;;;;;;;;;4.80;3.40;;;;;;;;5026939;28;8983;-77
2023/08/23 10:51:48;;;;;;;;;3.00;3.00;;;;;;;;5027119;28;8933;-75
2023/08/23 10:54:16;;;;;;;;;4.80;3.20;;;;;;;;5027532;28;8882;-76
2023/08/23 10:56:43;;;;;;;;;2.40;2.40;;;;;;;;5026401;28;9010;-76
2023/08/23 10:59:13;;;;;;;;;2.20;2.20;;;;;;;;5015476;28;8851;-75
2023/08/23 11:01:43;;;;;;;;;1.00;1.00;;;;;;;;5027077;28;8835;-77
2023/08/23 11:04:11;;;;;;;;;1.80;1.80;;;;;;;;5028900;28;8856;-78
2023/08/23 11:06:40;;;;;;;;;4.00;3.80;;;;;;;;5029624;28;8860;-77
2023/08/23 11:09:07;;;;;;;;;2.00;2.00;;;;;;;;5032404;28;8926;-76
2023/08/23 11:11:34;;;;;;;;;2.00;2.00;;;;;;;;5032437;28;8890;-80
2023/08/23 11:14:03;;;;;;;;;2.00;2.00;;;;;;;;5034742;28;8880;-82
2023/08/23 11:16:30;;;;;;;;;1.80;1.80;;;;;;;;5035540;28;8864;-82
2023/08/23 11:18:57;;;;;;;;;2.20;2.20;;;;;;;;5031037;28;8979;-76
2023/08/23 11:21:26;;;;;;;;;2.40;2.40;;;;;;;;5030181;28;8977;-80
2023/08/23 11:23:55;;;;;;;;;1.20;1.20;;;;;;;;5031044;28;8876;-77
2023/08/23 11:26:22;;;;;;;;;1.00;1.00;;;;;;;;5030620;28;8908;-78
2023/08/23 11:28:50;;;;;;;;;4.80;2.20;;;;;;;;5030626;28;8864;-78
2023/08/23 11:31:19;;;;;;;;;3.00;3.00;;;;;;;;5029972;28;8809;-77
2023/08/23 11:33:46;;;;;;;;;3.00;1.60;;;;;;;;5030601;28;8858;-77
2023/08/23 11:36:14;;;;;;;;;1.80;1.80;;;;;;;;5029750;28;8852;-79
2023/08/23 11:38:44;;;;;;;;;2.00;2.00;;;;;;;;5030897;28;8862;-78
2023/08/23 11:41:12;;;;;;;;;2.80;2.60;;;;;;;;5031240;28;8933;-78
2023/08/23 11:43:45;;;;;;;;;2.00;2.00;;;;;;;;5031998;28;8874;-78
2023/08/23 11:46:12;;;;;;;;;3.20;2.00;;;;;;;;5032288;28;8864;-77
2023/08/23 11:48:39;;;;;;;;;2.00;2.00;;;;;;;;5031188;28;8864;-85
2023/08/23 11:51:07;;;;;;;;;2.80;2.00;;;;;;;;5030441;28;8864;-87
2023/08/23 11:53:34;;;;;;;;;2.00;2.00;;;;;;;;5029743;28;8852;-84
2023/08/23 11:56:01;;;;;;;;;3.00;3.00;;;;;;;;5029831;28;9652;-81
2023/08/23 11:58:30;;;;;;;;;2.80;2.80;;;;;;;;5029819;28;8852;-79
2023/08/23 12:00:58;;;;;;;;;2.80;2.80;;;;;;;;5030667;28;8812;-79
2023/08/23 12:03:25;;;;;;;;;1.00;1.00;;;;;;;;5030850;28;8888;-80
2023/08/23 12:05:57;;;;;;;;;3.00;3.00;;;;;;;;5030909;28;8874;-79
2023/08/23 12:08:24;;;;;;;;;3.00;3.00;;;;;;;;5029663;28;8852;-81
2023/08/23 12:10:51;;;;;;;;;1.60;1.60;;;;;;;;5029910;28;8862;-75
2023/08/23 12:13:19;;;;;;;;;1.80;1.80;;;;;;;;5030173;28;8863;-81
2023/08/23 12:15:47;;;;;;;;;2.40;2.40;;;;;;;;5030488;28;9814;-82
2023/08/23 12:18:14;;;;;;;;;1.00;1.00;;;;;;;;5028378;28;8864;-79
2023/08/23 12:20:42;;;;;;;;;2.40;2.40;;;;;;;;5030507;28;8974;-82
2023/08/23 12:23:09;;;;;;;;;3.00;3.00;;;;;;;;5029580;28;8987;-80
2023/08/23 12:25:36;;;;;;;;;2.00;2.00;;;;;;;;5029450;28;8857;-80
2023/08/23 12:28:04;;;;;;;;;3.40;3.00;;;;;;;;5029666;28;8882;-80
2023/08/23 12:30:31;;;;;;;;;4.00;1.80;;;;;;;;5029844;28;8785;-81
2023/08/23 12:33:00;;;;;;;;;3.00;3.00;;;;;;;;5029275;28;9761;-81
2023/08/23 12:35:33;;;;;;;;;2.40;2.40;;;;;;;;5030192;28;8898;-82
2023/08/23 12:38:03;;;;;;;;;2.40;2.40;;;;;;;;5020031;28;8845;-82
2023/08/23 12:40:32;;;;;;;;;0.00;0.00;;;;;;;;5034857;28;8884;-85
2023/08/23 12:42:59;;;;;;;;;3.00;3.00;;;;;;;;5035183;28;8966;-80
2023/08/23 12:45:26;;;;;;;;;2.00;2.00;;;;;;;;5035004;28;8876;-80
2023/08/23 12:47:53;;;;;;;;;2.80;2.60;;;;;;;;5035175;28;8874;-81
2023/08/23 12:50:22;;;;;;;;;5.40;2.40;;;;;;;;5033742;28;8876;-80
2023/08/23 12:52:50;;;;;;;;;3.40;3.40;;;;;;;;5031101;28;8856;-81
2023/08/23 12:55:18;;;;;;;;;2.60;2.60;;;;;;;;5028998;28;8879;-82
2023/08/23 12:57:45;;;;;;;;;2.80;2.80;;;;;;;;5028920;28;8960;-81
2023/08/23 13:00:14;;;;;;;;;2.20;2.20;;;;;;;;5028568;28;8847;-79
2023/08/23 13:02:42;;;;;;;;;2.60;2.60;;;;;;;;5030433;28;8848;-82
2023/08/23 13:05:10;;;;;;;;;2.00;2.00;;;;;;;;5028653;28;8868;-83
2023/08/23 13:07:40;;;;;;;;;5.60;3.00;;;;;;;;5029702;28;8873;-85
2023/08/23 13:10:09;;;;;;;;;5.20;3.80;;;;;;;;5028197;28;9010;-80
2023/08/23 13:12:36;;;;;;;;;3.20;3.20;;;;;;;;5028964;28;8845;-83
2023/08/23 13:15:04;;;;;;;;;3.00;2.00;;;;;;;;5027532;28;8844;-80
2023/08/23 13:17:34;;;;;;;;;2.00;2.00;;;;;;;;5028838;28;8860;-81
2023/08/23 13:20:01;;;;;;;;;2.60;2.60;;;;;;;;5029764;28;8852;-81
2023/08/23 13:22:28;;;;;;;;;3.00;3.00;;;;;;;;5029685;28;9002;-81
2023/08/23 13:24:58;;;;;;;;;2.00;2.00;;;;;;;;5028630;28;9877;-81
2023/08/23 13:27:26;;;;;;;;;2.40;2.40;;;;;;;;5028062;28;8860;-81
2023/08/23 13:29:53;;;;;;;;;3.40;3.40;;;;;;;;5028206;28;8870;-80
2023/08/23 13:32:20;;;;;;;;;2.60;2.60;;;;;;;;5018190;28;9613;-80
2023/08/23 13:34:48;;;;;;;;;3.20;2.60;;;;;;;;5028228;28;8896;-80
2023/08/23 13:37:15;;;;;;;;;2.75;2.75;;;;;;;;5018326;28;8838;-81
2023/08/23 13:39:42;;;;;;;;;3.00;3.00;;;;;;;;5028754;28;8883;-80
2023/08/23 13:42:11;;;;;;;;;2.00;2.00;;;;;;;;5028091;28;8859;-78
2023/08/23 13:44:38;;;;;;;;;3.25;3.25;;;;;;;;5028559;28;8900;-80
2023/08/23 13:47:06;;;;;;;;;2.75;2.75;;;;;;;;5027129;28;9662;-81
2023/08/23 13:49:33;;;;;;;;;2.40;2.40;;;;;;;;5028402;28;8850;-82
2023/08/23 13:52:00;;;;;;;;;2.00;2.00;;;;;;;;5042732;28;8860;-83
2023/08/23 13:54:27;;;;;;;;;3.00;3.00;;;;;;;;5027898;28;8868;-81
2023/08/23 13:56:57;;;;;;;;;3.00;3.00;;;;;;;;5027430;28;8991;-81
2023/08/23 13:59:27;;;;;;;;;2.00;2.00;;;;;;;;5027598;28;8887;-81
2023/08/23 14:01:54;;;;;;;;;2.00;2.00;;;;;;;;5026968;28;8817;-80
2023/08/23 14:04:23;;;;;;;;;4.80;3.40;;;;;;;;5027437;28;8999;-80
2023/08/23 14:06:50;;;;;;;;;3.20;3.20;;;;;;;;5027901;28;8860;-81
2023/08/23 14:09:18;;;;;;;;;3.00;3.00;;;;;;;;5028575;28;8871;-81
2023/08/23 14:11:53;;;;;;;;;4.00;3.40;;;;;;;;5029221;28;8856;-81
2023/08/23 14:14:21;;;;;;;;;3.20;3.20;;;;;;;;5031775;28;8880;-80
2023/08/23 14:16:53;;;;;;;;;3.60;3.60;;;;;;;;5031846;28;8878;-79
2023/08/23 14:19:20;;;;;;;;;3.00;3.00;;;;;;;;5032396;28;8868;-81
2023/08/23 14:21:48;;;;;;;;;2.60;2.60;;;;;;;;5033427;28;8869;-81
2023/08/23 14:24:15;;;;;;;;;4.60;2.20;;;;;;;;5033018;28;8860;-80
2023/08/23 14:26:42;;;;;;;;;3.20;3.20;;;;;;;;5029216;28;8864;-81
2023/08/23 14:29:10;;;;;;;;;3.00;3.00;;;;;;;;5027238;28;8967;-83
2023/08/23 14:31:37;;;;;;;;;4.60;3.80;;;;;;;;5026782;28;8804;-81
2023/08/23 14:34:25;;;;;;;;;2.60;0.80;;;;;;;;5026399;28;10049;-81
2023/08/23 14:37:01;;;;;;;;;5.40;4.00;;;;;;;;5019928;28;8858;-81
2023/08/23 14:39:29;;;;;;;;;3.00;3.00;;;;;;;;5026622;28;8856;-81
2023/08/23 14:41:56;;;;;;;;;3.00;3.00;;;;;;;;5028333;28;8914;-79
2023/08/23 14:44:26;;;;;;;;;3.20;3.20;;;;;;;;5027506;28;8852;-80
2023/08/23 14:46:53;;;;;;;;;5.00;4.00;;;;;;;;5027483;28;8889;-80
2023/08/23 14:49:20;;;;;;;;;4.00;3.60;;;;;;;;5016683;28;8941;-81
2023/08/23 14:51:49;;;;;;;;;4.00;2.60;;;;;;;;5032370;28;8958;-79
2023/08/23 14:54:16;;;;;;;;;2.00;2.00;;;;;;;;5031780;28;8991;-81
2023/08/23 14:56:43;;;;;;;;;2.40;2.40;;;;;;;;5032802;28;8869;-81
2023/08/23 14:59:12;;;;;;;;;3.40;3.40;;;;;;;;5030861;28;9030;-81
2023/08/23 15:01:39;;;;;;;;;3.80;3.80;;;;;;;;5030703;28;8840;-81